LSZB/BRN METAR and TAF weather

Enter ICAO airport designator
Station Type Date Time Source
LSZB METAR 2020/04/05 05:20 UTC NOAA

LSZB 050520Z AUTO 00000KT 5000 NCD M01/M01 Q1022


Station Type Date Time Source
LSZB Decoded METAR 2020/04/05 05:20 UTC NOAA

Bern / Belp , Switzerland (LSZB) 46-55N 007-30E
Apr 05, 2020 - 01:20 AM EDT / 2020.04.05 0520 UTC
Wind: Calm:0
Visibility: 3 mile(s):0
Temperature: 30 F (-1 C)
Dew Point: 30 F (-1 C)
Relative Humidity: 100%
Pressure (altimeter): 30.18 in. Hg (1022 hPa)
ob: LSZB 050520Z AUTO 00000KT 5000 NCD M01/M01 Q1022
cycle: 5

Station Type Date Time Source
LSZB TAF 2014/12/22 20:03 UTC NOAA

TAF
AMD TAF
AMD LSZB 222054Z 2220/2224 CNL

Example: see airport list